Time;durP1;ratioP1;P1;durP2;ratioP2;P2;SDS_P1;SDS_P2;PMS_P1;PMS_P2;Temp;Humidity;BMP_temperature;BMP_pressure;BME280_temperature;BME280_humidity;BME280_pressure;Samples;Min_cycle;Max_cycle;Signal;HPM_P1;HPM_P2
2022/07/28 00:01:35;;;;;;;8.07;2.28;;;18.30;97.30;;;;;;4960879;28;20751;-77
2022/07/28 00:04:24;;;;;;;5.60;1.90;;;18.30;97.90;;;;;;4973557;28;20242;-75
2022/07/28 00:07:13;;;;;;;3.97;2.00;;;18.30;98.60;;;;;;4967111;28;20223;-76
2022/07/28 00:10:02;;;;;;;6.15;2.10;;;18.20;99.20;;;;;;4979074;28;20223;-76
2022/07/28 00:12:51;;;;;;;5.85;1.60;;;18.10;99.90;;;;;;4959079;28;20220;-76
2022/07/28 00:15:39;;;;;;;3.50;1.50;;;18.20;99.90;;;;;;4961109;28;20266;-78
2022/07/28 00:18:28;;;;;;;5.60;1.90;;;18.00;99.90;;;;;;4949692;28;20224;-77
2022/07/28 00:21:17;;;;;;;6.68;2.20;;;18.00;99.90;;;;;;4960324;28;20233;-76
2022/07/28 00:24:07;;;;;;;3.28;1.63;;;17.80;99.90;;;;;;4956376;28;20227;-75
2022/07/28 00:26:56;;;;;;;5.90;2.10;;;18.00;99.90;;;;;;4962499;28;20336;-76
2022/07/28 00:29:45;;;;;;;4.18;1.60;;;18.00;99.90;;;;;;4962233;28;20597;-76
2022/07/28 00:32:38;;;;;;;3.83;1.88;;;18.10;99.90;;;;;;4977875;28;20230;-77
2022/07/28 00:35:27;;;;;;;4.25;1.50;;;18.10;99.90;;;;;;4974094;28;20223;-77
2022/07/28 00:38:19;;;;;;;3.63;1.70;;;18.10;99.90;;;;;;4962367;28;20338;-76
2022/07/28 00:41:12;;;;;;;4.68;2.20;;;18.00;99.90;;;;;;4965086;28;20235;-75
2022/07/28 00:44:01;;;;;;;5.50;1.80;;;17.90;99.90;;;;;;4950228;28;20266;-75
2022/07/28 00:46:50;;;;;;;4.90;1.33;;;17.90;99.90;;;;;;4970153;28;20223;-76
2022/07/28 00:49:39;;;;;;;5.53;1.63;;;17.80;99.90;;;;;;4972010;28;20329;-76
2022/07/28 00:52:28;;;;;;;2.80;1.30;;;17.70;99.90;;;;;;4977482;28;20234;-76
2022/07/28 00:55:17;;;;;;;4.20;1.63;;;17.80;99.90;;;;;;4962425;28;20231;-75
2022/07/28 00:58:07;;;;;;;4.88;1.65;;;17.80;99.90;;;;;;4951141;28;20223;-76
2022/07/28 01:00:56;;;;;;;5.22;1.60;;;17.60;99.90;;;;;;4952883;28;20223;-76
2022/07/28 01:03:47;;;;;;;3.35;1.60;;;17.80;99.90;;;;;;4978874;28;20238;-74
2022/07/28 01:06:48;;;;;;;4.45;1.85;;;17.70;99.90;;;;;;4978081;28;20299;-76
2022/07/28 01:09:51;;;;;;;5.78;2.03;;;17.60;99.90;;;;;;4983404;28;20221;-78
2022/07/28 01:12:50;;;;;;;5.07;1.75;;;17.50;99.90;;;;;;4983199;28;20225;-77
2022/07/28 01:15:48;;;;;;;4.25;1.60;;;17.60;99.90;;;;;;4979754;28;20285;-77
2022/07/28 01:18:47;;;;;;;4.85;1.60;;;17.50;99.90;;;;;;4971301;28;20241;-77
2022/07/28 01:21:39;;;;;;;4.40;1.70;;;17.40;99.90;;;;;;4980568;28;20223;-78
2022/07/28 01:24:31;;;;;;;5.25;1.98;;;17.40;99.90;;;;;;4982455;28;20227;-78
2022/07/28 01:27:35;;;;;;;3.65;2.00;;;17.40;99.90;;;;;;4985436;28;20230;-77
2022/07/28 01:30:35;;;;;;;6.75;1.85;;;17.30;99.90;;;;;;4978255;28;20626;-77
2022/07/28 01:33:32;;;;;;;3.25;1.70;;;17.30;99.90;;;;;;4968427;28;20229;-78
2022/07/28 01:36:26;;;;;;;9.05;1.98;;;17.30;99.90;;;;;;4981278;28;20227;-76
2022/07/28 01:39:16;;;;;;;6.05;1.92;;;17.30;99.90;;;;;;4975216;28;20219;-77
2022/07/28 01:42:07;;;;;;;5.95;1.73;;;17.20;99.90;;;;;;4980950;28;20475;-78
2022/07/28 01:44:59;;;;;;;6.18;2.10;;;17.10;99.90;;;;;;4969379;28;20223;-76
2022/07/28 01:47:51;;;;;;;7.22;1.85;;;17.20;99.90;;;;;;4981923;28;20293;-77
2022/07/28 01:50:44;;;;;;;5.68;1.73;;;17.10;99.90;;;;;;4984020;28;20223;-76
2022/07/28 01:53:32;;;;;;;2.75;1.63;;;17.10;99.90;;;;;;4974920;28;20226;-78
2022/07/28 01:56:28;;;;;;;5.18;2.30;;;17.00;99.90;;;;;;4983390;28;20215;-76
2022/07/28 01:59:18;;;;;;;7.22;2.38;;;16.90;99.90;;;;;;4988792;28;20218;-76
2022/07/28 02:02:08;;;;;;;5.60;1.90;;;17.00;99.90;;;;;;4981125;28;20222;-78
2022/07/28 02:05:00;;;;;;;3.28;1.65;;;17.00;99.90;;;;;;4970421;28;20230;-78
2022/07/28 02:07:51;;;;;;;5.90;1.98;;;17.00;99.90;;;;;;4964986;28;20231;-78
2022/07/28 02:10:42;;;;;;;4.72;1.75;;;16.90;99.90;;;;;;4971536;28;20905;-78
2022/07/28 02:13:32;;;;;;;6.38;2.00;;;16.80;99.90;;;;;;4964814;28;20237;-78
2022/07/28 02:16:24;;;;;;;8.43;2.50;;;16.80;99.90;;;;;;4976534;28;20741;-78
2022/07/28 02:19:14;;;;;;;6.13;2.03;;;16.70;99.90;;;;;;4976891;28;20599;-78
2022/07/28 02:22:06;;;;;;;6.82;2.30;;;16.70;99.90;;;;;;4968624;28;20820;-78
2022/07/28 02:24:55;;;;;;;4.22;1.88;;;16.80;99.90;;;;;;4973647;28;20366;-79
2022/07/28 02:27:49;;;;;;;5.55;2.03;;;16.70;99.90;;;;;;4976379;28;20322;-78
2022/07/28 02:30:41;;;;;;;4.18;1.90;;;16.80;99.90;;;;;;4975642;28;20599;-77
2022/07/28 02:33:32;;;;;;;3.53;1.98;;;16.90;99.90;;;;;;4974562;28;20242;-77
2022/07/28 02:36:45;;;;;;;5.00;1.95;;;16.60;99.90;;;;;;4978424;28;20224;-78
2022/07/28 02:39:44;;;;;;;7.13;2.28;;;16.50;99.90;;;;;;4969850;28;20250;-76
2022/07/28 02:42:48;;;;;;;5.80;2.50;;;16.60;99.90;;;;;;4978182;28;20242;-77
2022/07/28 02:45:41;;;;;;;5.55;2.33;;;16.50;99.90;;;;;;4986870;28;20238;-76
2022/07/28 02:48:35;;;;;;;5.80;2.22;;;16.50;99.90;;;;;;4982805;28;20250;-77
2022/07/28 02:51:28;;;;;;;8.52;2.65;;;16.40;99.90;;;;;;4970823;28;20298;-78
2022/07/28 02:54:19;;;;;;;7.28;2.70;;;16.40;99.90;;;;;;4979556;28;20227;-78
2022/07/28 02:57:12;;;;;;;6.55;2.72;;;16.50;99.90;;;;;;4969592;28;20325;-77
2022/07/28 03:00:01;;;;;;;6.75;2.72;;;16.50;99.90;;;;;;4979037;28;20567;-78
2022/07/28 03:02:51;;;;;;;5.07;2.83;;;16.40;99.90;;;;;;4977377;28;20238;-78
2022/07/28 03:05:40;;;;;;;6.90;3.00;;;16.30;99.90;;;;;;4981432;28;20386;-78
2022/07/28 03:08:29;;;;;;;5.53;3.00;;;16.40;99.90;;;;;;4987726;28;20240;-78
2022/07/28 03:11:18;;;;;;;7.38;3.15;;;16.30;99.90;;;;;;4971930;28;20218;-77
2022/07/28 03:14:08;;;;;;;10.82;2.90;;;16.30;99.90;;;;;;4970145;28;20712;-76
2022/07/28 03:16:57;;;;;;;6.38;3.03;;;16.20;99.90;;;;;;4983994;28;20227;-77
2022/07/28 03:19:46;;;;;;;7.75;2.95;;;16.10;99.90;;;;;;4967273;28;20235;-78
2022/07/28 03:22:34;;;;;;;7.03;3.00;;;16.20;99.90;;;;;;4986727;28;20256;-77
2022/07/28 03:25:27;;;;;;;5.22;2.80;;;16.20;99.90;;;;;;4964917;28;20719;-76
2022/07/28 03:28:19;;;;;;;6.30;3.15;;;16.20;99.90;;;;;;4967910;28;20314;-77
2022/07/28 03:31:12;;;;;;;6.57;3.03;;;16.20;99.90;;;;;;4988171;28;20301;-77
2022/07/28 03:34:01;;;;;;;11.27;3.25;;;16.30;99.90;;;;;;4986681;28;20708;-77
2022/07/28 03:36:56;;;;;;;12.32;4.03;;;16.30;99.90;;;;;;4982681;28;20754;-77
2022/07/28 03:39:47;;;;;;;8.20;3.17;;;16.50;99.90;;;;;;4985468;28;21057;-77
2022/07/28 03:42:37;;;;;;;7.32;2.63;;;16.40;99.90;;;;;;4979705;28;20231;-77
2022/07/28 03:45:26;;;;;;;8.63;3.10;;;16.40;99.90;;;;;;4981863;28;20227;-78
2022/07/28 03:48:17;;;;;;;7.80;3.20;;;16.30;99.90;;;;;;4968019;28;20711;-79
2022/07/28 03:51:05;;;;;;;8.18;3.47;;;16.50;99.90;;;;;;4966938;28;20225;-78
2022/07/28 03:53:54;;;;;;;11.25;3.20;;;16.60;99.90;;;;;;4980205;28;20241;-76
2022/07/28 03:56:42;;;;;;;9.20;3.05;;;16.60;99.90;;;;;;4966938;28;20745;-76
2022/07/28 03:59:31;;;;;;;10.10;3.33;;;16.60;99.90;;;;;;4976142;28;20238;-76
2022/07/28 04:02:20;;;;;;;8.65;3.03;;;16.70;99.90;;;;;;4977267;28;20345;-78
2022/07/28 04:05:11;;;;;;;7.40;3.05;;;16.60;99.90;;;;;;4966267;28;20258;-76
2022/07/28 04:08:03;;;;;;;10.00;3.10;;;16.60;99.90;;;;;;4968986;28;20223;-76
2022/07/28 04:10:52;;;;;;;6.93;3.13;;;16.60;99.90;;;;;;4978650;28;20318;-77
2022/07/28 04:13:41;;;;;;;7.38;3.10;;;16.70;99.90;;;;;;4985086;28;20227;-76
2022/07/28 04:16:30;;;;;;;6.63;3.10;;;16.70;99.90;;;;;;4973920;28;20266;-78
2022/07/28 04:19:18;;;;;;;6.75;3.20;;;16.90;99.90;;;;;;4968375;28;20707;-77
2022/07/28 04:22:08;;;;;;;9.43;3.30;;;16.90;99.90;;;;;;4984990;28;20346;-77
2022/07/28 04:24:57;;;;;;;8.82;3.30;;;17.00;99.90;;;;;;4981469;28;20307;-78
2022/07/28 04:27:46;;;;;;;8.10;3.63;;;16.90;99.90;;;;;;4978315;28;20231;-78
2022/07/28 04:30:34;;;;;;;11.93;3.42;;;17.00;99.90;;;;;;4969304;28;20229;-78
2022/07/28 04:33:31;;;;;;;7.72;3.40;;;17.00;99.90;;;;;;4983903;28;20715;-77
2022/07/28 04:36:20;;;;;;;5.00;3.10;;;17.10;99.90;;;;;;4982490;28;20227;-77
2022/07/28 04:39:11;;;;;;;7.93;3.20;;;17.20;99.90;;;;;;4980174;28;20638;-77
2022/07/28 04:41:59;;;;;;;8.20;3.92;;;17.30;99.90;;;;;;4981631;28;20218;-77
2022/07/28 04:44:48;;;;;;;8.77;3.80;;;17.40;99.90;;;;;;4984363;28;20746;-77
2022/07/28 04:47:36;;;;;;;5.25;2.95;;;17.40;99.90;;;;;;4981272;28;20229;-78
2022/07/28 04:50:25;;;;;;;4.75;2.92;;;17.50;99.90;;;;;;4981536;28;20719;-77
2022/07/28 04:53:20;;;;;;;7.32;3.45;;;17.60;99.90;;;;;;4980239;28;20765;-77
2022/07/28 04:56:10;;;;;;;8.23;3.00;;;17.60;99.90;;;;;;4968069;28;20365;-77
2022/07/28 04:59:00;;;;;;;7.63;3.35;;;17.70;99.90;;;;;;4978722;28;20231;-77
2022/07/28 05:01:51;;;;;;;8.60;3.28;;;17.80;99.90;;;;;;4971486;28;20242;-77
2022/07/28 05:04:40;;;;;;;5.65;2.88;;;17.90;99.90;;;;;;4968731;28;20215;-79
2022/07/28 05:07:29;;;;;;;6.97;2.92;;;18.00;99.90;;;;;;4983694;28;20230;-77
2022/07/28 05:10:17;;;;;;;8.48;3.03;;;18.00;99.90;;;;;;4980142;28;20242;-76
2022/07/28 05:13:07;;;;;;;6.85;2.80;;;18.20;99.90;;;;;;4976778;28;20893;-78
2022/07/28 05:15:56;;;;;;;10.88;3.03;;;18.20;99.90;;;;;;4980539;28;20223;-77
2022/07/28 05:18:44;;;;;;;12.02;3.30;;;18.30;99.90;;;;;;4979190;28;20711;-77
2022/07/28 05:21:33;;;;;;;7.60;3.17;;;18.50;99.90;;;;;;4981871;28;20587;-78
2022/07/28 05:24:22;;;;;;;10.90;3.10;;;18.60;99.90;;;;;;4980467;28;22254;-78
2022/07/28 05:27:11;;;;;;;12.70;3.40;;;18.70;99.90;;;;;;4978846;28;20990;-78
2022/07/28 05:30:01;;;;;;;8.95;3.17;;;18.80;99.90;;;;;;4966155;28;20358;-79
2022/07/28 05:32:52;;;;;;;12.35;3.40;;;18.90;99.90;;;;;;4976685;28;20237;-79
2022/07/28 05:35:41;;;;;;;6.80;2.83;;;19.10;99.90;;;;;;4963454;28;20703;-78
2022/07/28 05:38:31;;;;;;;10.55;2.90;;;19.20;99.90;;;;;;4967555;28;20905;-78
2022/07/28 05:41:19;;;;;;;7.80;3.13;;;19.60;99.90;;;;;;4983169;28;20223;-77
2022/07/28 05:44:08;;;;;;;6.93;2.70;;;19.90;99.90;;;;;;4969463;28;20230;-77
2022/07/28 05:46:58;;;;;;;8.38;2.95;;;19.70;99.90;;;;;;4983677;28;20222;-75
2022/07/28 05:49:47;;;;;;;8.35;3.10;;;19.50;99.90;;;;;;4978404;28;20230;-77
2022/07/28 05:52:36;;;;;;;6.32;2.90;;;19.60;99.90;;;;;;4984426;28;20257;-79
2022/07/28 05:55:25;;;;;;;5.68;2.30;;;19.70;99.90;;;;;;4969685;28;20218;-77
2022/07/28 05:58:14;;;;;;;8.85;2.53;;;19.70;99.90;;;;;;4981974;28;20230;-78
2022/07/28 06:01:03;;;;;;;6.72;2.17;;;20.30;99.90;;;;;;4980895;28;20713;-77
2022/07/28 06:03:53;;;;;;;3.50;2.20;;;21.40;99.90;;;;;;4968000;28;20405;-76
2022/07/28 06:07:02;;;;;;;8.35;2.30;;;22.00;99.90;;;;;;4966661;28;20302;-78
2022/07/28 06:09:52;;;;;;;6.95;2.38;;;22.10;99.90;;;;;;4981486;28;20289;-78
2022/07/28 06:12:41;;;;;;;7.82;2.42;;;21.80;98.80;;;;;;4976284;28;20231;-77
2022/07/28 06:15:30;;;;;;;7.38;2.15;;;22.50;96.60;;;;;;4978218;28;20262;-76
2022/07/28 06:18:19;;;;;;;5.40;2.63;;;21.60;98.10;;;;;;4973847;28;20227;-76
2022/07/28 06:21:09;;;;;;;4.60;2.40;;;21.30;98.90;;;;;;4985663;28;20260;-78
2022/07/28 06:23:58;;;;;;;7.95;2.08;;;21.00;98.50;;;;;;4991664;28;20233;-79
2022/07/28 06:26:47;;;;;;;3.70;1.90;;;20.80;97.60;;;;;;4984964;28;20215;-77
2022/07/28 06:29:35;;;;;;;10.35;2.40;;;20.90;97.70;;;;;;4969199;28;20384;-79
2022/07/28 06:32:24;;;;;;;9.45;2.10;;;20.80;97.70;;;;;;4980281;28;20238;-76
2022/07/28 06:35:15;;;;;;;5.72;1.80;;;20.80;98.20;;;;;;4984355;28;20238;-76
2022/07/28 06:38:05;;;;;;;9.55;2.58;;;20.80;97.50;;;;;;4976458;28;20258;-77
2022/07/28 06:40:54;;;;;;;4.70;2.03;;;20.80;97.20;;;;;;4980311;28;20238;-77
2022/07/28 06:43:42;;;;;;;6.68;2.05;;;21.00;99.20;;;;;;4980547;28;20219;-77
2022/07/28 06:46:31;;;;;;;4.05;1.70;;;21.00;98.00;;;;;;4982476;28;20218;-76
2022/07/28 06:49:20;;;;;;;5.93;1.50;;;21.00;96.50;;;;;;4987590;28;20230;-77
2022/07/28 06:52:08;;;;;;;7.20;2.05;;;21.00;94.00;;;;;;4980566;28;20234;-76
2022/07/28 06:54:59;;;;;;;4.63;1.77;;;21.00;93.90;;;;;;4982532;28;20317;-73
2022/07/28 06:57:49;;;;;;;5.22;1.90;;;21.10;93.60;;;;;;4979031;28;20223;-76
2022/07/28 07:00:38;;;;;;;10.80;1.88;;;21.20;92.70;;;;;;4983447;28;20882;-75
2022/07/28 07:03:27;;;;;;;4.35;1.67;;;21.30;93.40;;;;;;4970539;28;20777;-76
2022/07/28 07:06:15;;;;;;;11.15;1.70;;;21.30;93.30;;;;;;4984629;28;20219;-76
2022/07/28 07:09:04;;;;;;;5.53;1.65;;;21.40;92.70;;;;;;4985658;28;20648;-77
2022/07/28 07:11:55;;;;;;;4.45;1.80;;;21.60;92.80;;;;;;4976550;28;20227;-77
2022/07/28 07:14:47;;;;;;;6.05;1.50;;;21.70;92.00;;;;;;4987108;28;20287;-76
2022/07/28 07:17:36;;;;;;;4.60;1.88;;;21.90;92.10;;;;;;4979559;28;20218;-76
2022/07/28 07:20:25;;;;;;;8.00;1.70;;;21.90;92.10;;;;;;4970327;28;20700;-76
2022/07/28 07:23:14;;;;;;;10.35;2.10;;;22.00;91.60;;;;;;4987248;28;20703;-76
2022/07/28 07:26:03;;;;;;;13.93;2.10;;;22.20;91.40;;;;;;4965745;28;20228;-76
2022/07/28 07:28:53;;;;;;;8.13;1.65;;;22.20;89.70;;;;;;4983913;28;20298;-76
2022/07/28 07:31:41;;;;;;;7.65;1.90;;;22.60;90.70;;;;;;4976860;28;20293;-76
2022/07/28 07:34:30;;;;;;;5.95;1.95;;;22.80;90.70;;;;;;4984001;28;20241;-76
2022/07/28 07:37:20;;;;;;;12.95;3.05;;;23.00;88.00;;;;;;4973088;28;20234;-76
2022/07/28 07:40:09;;;;;;;9.32;2.10;;;23.20;86.00;;;;;;4982501;28;20219;-77
2022/07/28 07:42:57;;;;;;;6.10;2.00;;;23.50;84.70;;;;;;4967632;28;20223;-76
2022/07/28 07:45:48;;;;;;;10.07;2.30;;;23.80;84.00;;;;;;4979295;28;20211;-75
2022/07/28 07:48:36;;;;;;;12.27;2.25;;;24.00;82.50;;;;;;4978530;28;20218;-74
2022/07/28 07:51:25;;;;;;;4.57;1.50;;;24.20;80.40;;;;;;4983134;28;20590;-75
2022/07/28 07:54:13;;;;;;;4.65;2.00;;;24.60;80.10;;;;;;4969020;28;20223;-75
2022/07/28 07:57:02;;;;;;;5.85;1.88;;;24.90;78.40;;;;;;4980925;28;20219;-75
2022/07/28 07:59:51;;;;;;;13.68;2.60;;;25.30;80.50;;;;;;4982649;28;20226;-74
2022/07/28 08:02:42;;;;;;;5.97;2.00;;;25.80;75.70;;;;;;4975673;28;20228;-75
2022/07/28 08:05:31;;;;;;;6.93;2.00;;;26.00;73.90;;;;;;4979063;28;20245;-75
2022/07/28 08:08:23;;;;;;;5.05;1.90;;;26.50;73.90;;;;;;4969567;28;20718;-76
2022/07/28 08:11:12;;;;;;;11.38;2.58;;;26.90;71.80;;;;;;4976295;28;20218;-76
2022/07/28 08:14:01;;;;;;;7.63;2.58;;;27.30;71.80;;;;;;4978757;28;20276;-76
2022/07/28 08:16:50;;;;;;;8.57;2.38;;;27.30;68.60;;;;;;4969224;28;20219;-76
2022/07/28 08:19:40;;;;;;;8.45;3.13;;;27.50;70.30;;;;;;4981090;28;20324;-75
2022/07/28 08:22:29;;;;;;;6.75;2.10;;;27.70;67.70;;;;;;4981144;28;20235;-75
2022/07/28 08:25:19;;;;;;;5.05;2.20;;;28.00;68.30;;;;;;4983680;28;20704;-75
2022/07/28 08:28:08;;;;;;;11.00;2.40;;;28.40;63.50;;;;;;4978197;28;20364;-75
2022/07/28 08:30:56;;;;;;;6.13;1.75;;;28.50;64.30;;;;;;4983252;28;20228;-75
2022/07/28 08:33:45;;;;;;;6.45;2.22;;;28.80;63.50;;;;;;4980937;28;20243;-75
2022/07/28 08:36:43;;;;;;;4.05;2.10;;;28.80;62.10;;;;;;4971923;28;20231;-75
2022/07/28 08:39:33;;;;;;;14.10;2.40;;;28.40;62.20;;;;;;4990623;28;20253;-76
2022/07/28 08:42:31;;;;;;;5.78;2.10;;;28.70;61.20;;;;;;4982720;28;20745;-75
2022/07/28 08:45:21;;;;;;;6.25;2.50;;;29.00;61.00;;;;;;4982095;28;20252;-75
2022/07/28 08:48:12;;;;;;;6.32;2.67;;;29.50;61.30;;;;;;4972383;28;20235;-76
2022/07/28 08:51:02;;;;;;;5.22;2.10;;;29.90;59.70;;;;;;4968496;28;20252;-76
2022/07/28 08:53:53;;;;;;;7.03;3.38;;;30.40;56.10;;;;;;4977886;28;20719;-74
2022/07/28 08:56:44;;;;;;;5.63;1.77;;;30.70;57.10;;;;;;4975789;28;21004;-75
2022/07/28 08:59:36;;;;;;;9.52;2.35;;;30.60;55.90;;;;;;4974721;28;20298;-76
2022/07/28 09:02:27;;;;;;;8.55;2.17;;;31.00;55.10;;;;;;4975242;28;20703;-76
2022/07/28 09:05:19;;;;;;;3.95;1.73;;;31.80;54.80;;;;;;4975031;28;20696;-76
2022/07/28 09:08:08;;;;;;;3.20;1.60;;;32.60;53.30;;;;;;4972655;28;20230;-76
2022/07/28 09:10:58;;;;;;;3.97;1.83;;;33.30;52.20;;;;;;4962944;28;20693;-76
2022/07/28 09:13:46;;;;;;;3.95;1.80;;;34.10;50.40;;;;;;4965336;28;20230;-76
2022/07/28 09:16:41;;;;;;;3.22;1.73;;;34.10;49.50;;;;;;4975020;28;20269;-76
2022/07/28 09:19:29;;;;;;;5.68;1.88;;;34.70;48.90;;;;;;4977800;28;20240;-76
2022/07/28 09:22:23;;;;;;;3.95;1.92;;;35.00;47.00;;;;;;4977284;28;20223;-75
2022/07/28 09:25:18;;;;;;;7.00;2.17;;;35.70;47.30;;;;;;4975491;28;21202;-76
2022/07/28 09:28:11;;;;;;;5.53;1.90;;;35.80;45.80;;;;;;4974806;28;20274;-75
2022/07/28 09:31:08;;;;;;;4.35;1.98;;;35.50;45.90;;;;;;4985018;28;20224;-76
2022/07/28 09:34:00;;;;;;;7.65;2.30;;;36.00;46.20;;;;;;4965133;28;20230;-76
2022/07/28 09:36:49;;;;;;;5.07;1.80;;;36.00;45.20;;;;;;4983432;28;20864;-76
2022/07/28 09:39:38;;;;;;;5.80;1.20;;;36.10;45.30;;;;;;4977160;28;20234;-75
2022/07/28 09:42:44;;;;;;;1.83;1.25;;;36.10;43.30;;;;;;4986513;28;20218;-76
2022/07/28 09:45:34;;;;;;;5.32;1.58;;;36.60;44.00;;;;;;4978917;28;20232;-74
2022/07/28 09:48:23;;;;;;;3.25;1.33;;;36.70;44.30;;;;;;4983431;28;20245;-76
2022/07/28 09:51:13;;;;;;;5.95;1.30;;;37.00;41.80;;;;;;4980105;28;20235;-76
2022/07/28 09:54:12;;;;;;;1.88;1.27;;;37.00;41.80;;;;;;4981152;28;20244;-76
2022/07/28 09:57:02;;;;;;;2.95;1.50;;;36.70;41.40;;;;;;4982711;28;20751;-76
2022/07/28 09:59:50;;;;;;;1.73;1.40;;;36.90;43.10;;;;;;4972254;28;20237;-77
2022/07/28 10:02:49;;;;;;;7.82;1.80;;;36.10;43.30;;;;;;4954899;28;20231;-77
2022/07/28 10:05:42;;;;;;;6.97;1.65;;;36.90;43.20;;;;;;4961364;28;20632;-77
2022/07/28 10:08:42;;;;;;;4.35;1.77;;;36.80;43.90;;;;;;4966898;28;20233;-76
2022/07/28 10:11:31;;;;;;;4.18;1.33;;;35.90;44.10;;;;;;4966571;28;20218;-76
2022/07/28 10:14:32;;;;;;;4.00;1.60;;;34.60;45.70;;;;;;4950359;28;20232;-76
2022/07/28 10:17:27;;;;;;;4.88;1.95;;;34.00;46.90;;;;;;4961860;28;20247;-76
2022/07/28 10:20:17;;;;;;;6.20;1.38;;;33.50;47.40;;;;;;4954420;28;20227;-76
2022/07/28 10:23:10;;;;;;;6.00;1.90;;;33.60;46.80;;;;;;4961790;28;20234;-76
2022/07/28 10:26:00;;;;;;;2.83;1.27;;;33.90;46.20;;;;;;4959768;28;20226;-77
2022/07/28 10:28:51;;;;;;;2.60;1.30;;;34.40;45.80;;;;;;4953793;28;20297;-76
2022/07/28 10:31:48;;;;;;;2.45;1.20;;;35.30;45.80;;;;;;4959306;28;20247;-76
2022/07/28 10:34:43;;;;;;;6.05;1.30;;;35.70;45.80;;;;;;4961053;28;20371;-76
2022/07/28 10:37:38;;;;;;;6.50;1.60;;;35.90;43.90;;;;;;4962675;28;20234;-77
2022/07/28 10:40:31;;;;;;;3.58;1.33;;;35.10;43.90;;;;;;4962251;28;20990;-77
2022/07/28 10:43:20;;;;;;;5.82;1.60;;;35.10;45.10;;;;;;4938369;28;20664;-76
2022/07/28 10:46:09;;;;;;;3.47;1.90;;;35.40;45.70;;;;;;4951877;28;20700;-77
2022/07/28 10:49:04;;;;;;;6.75;1.65;;;36.20;44.70;;;;;;4959790;28;20267;-76
2022/07/28 10:51:57;;;;;;;6.10;1.60;;;36.00;44.20;;;;;;4960444;28;20235;-78
2022/07/28 10:55:17;;;;;;;5.15;1.40;;;36.40;45.20;;;;;;4963370;28;20220;-74
2022/07/28 10:58:18;;;;;;;3.05;1.42;;;36.30;43.70;;;;;;4965510;28;20313;-77
2022/07/28 11:01:32;;;;;;;7.72;2.30;;;36.60;43.40;;;;;;4963399;28;20994;-75
2022/07/28 11:04:54;;;;;;;3.15;1.55;;;41.40;40.80;;;;;;4962729;28;20223;-74
2022/07/28 11:07:43;;;;;;;4.88;1.38;;;46.10;34.70;;;;;;4964998;28;20229;-75
2022/07/28 11:10:45;;;;;;;2.60;1.38;;;48.10;31.80;;;;;;4964973;28;20223;-75
2022/07/28 11:13:35;;;;;;;2.13;1.30;;;49.30;29.90;;;;;;4962459;28;20333;-76
2022/07/28 11:16:30;;;;;;;3.97;1.75;;;49.30;29.80;;;;;;4962516;28;20254;-75
2022/07/28 11:19:24;;;;;;;6.78;1.90;;;50.00;30.20;;;;;;4959910;28;20268;-77
2022/07/28 11:22:33;;;;;;;11.35;2.00;;;50.20;29.60;;;;;;4958896;28;20286;-76
2022/07/28 11:25:22;;;;;;;3.25;1.98;;;50.30;29.00;;;;;;4961608;28;20224;-76
2022/07/28 11:28:12;;;;;;;4.57;2.17;;;49.70;28.90;;;;;;4963148;28;20223;-78
2022/07/28 11:31:01;;;;;;;3.72;2.20;;;49.50;29.10;;;;;;4959062;28;20915;-78
2022/07/28 11:33:56;;;;;;;7.00;2.78;;;50.10;29.30;;;;;;4959367;28;20235;-76
2022/07/28 11:37:00;;;;;;;3.65;2.40;;;51.30;28.10;;;;;;4942615;28;20229;-76
2022/07/28 11:39:48;;;;;;;4.97;2.70;;;50.10;27.80;;;;;;4943918;28;20233;-74
2022/07/28 11:42:37;;;;;;;5.30;2.30;;;48.00;29.00;;;;;;4965032;28;20592;-76
2022/07/28 11:45:27;;;;;;;4.00;2.03;;;43.30;32.70;;;;;;4961143;28;20741;-75
2022/07/28 11:48:28;;;;;;;3.05;1.55;;;45.20;32.60;;;;;;4962956;28;20722;-78
2022/07/28 11:51:18;;;;;;;4.00;1.55;;;40.20;34.00;;;;;;4963673;28;20673;-70
2022/07/28 11:54:16;;;;;;;2.28;1.30;;;45.00;32.30;;;;;;4965615;28;20214;-72
2022/07/28 11:57:08;;;;;;;4.55;1.70;;;48.40;29.40;;;;;;4958937;28;20254;-72
2022/07/28 12:00:02;;;;;;;2.22;1.40;;;49.00;28.80;;;;;;4963330;28;20253;-70
2022/07/28 12:02:55;;;;;;;3.63;1.55;;;49.70;28.40;;;;;;4958269;28;20607;-72
2022/07/28 12:05:56;;;;;;;3.33;1.33;;;49.70;28.30;;;;;;4959381;28;20237;-72
2022/07/28 12:08:53;;;;;;;3.08;1.50;;;49.60;28.80;;;;;;4968789;28;20226;-72
2022/07/28 12:11:56;;;;;;;2.03;1.25;;;49.30;28.10;;;;;;4958977;28;20883;-72
2022/07/28 12:14:45;;;;;;;5.25;1.23;;;48.80;28.60;;;;;;4938630;28;20718;-73
2022/07/28 12:17:34;;;;;;;7.00;1.80;;;48.40;28.40;;;;;;4959931;28;20235;-73
2022/07/28 12:20:30;;;;;;;3.80;1.30;;;45.80;30.50;;;;;;4958352;28;20309;-73
2022/07/28 12:23:29;;;;;;;2.67;1.23;;;45.10;31.20;;;;;;4960123;28;20310;-72
2022/07/28 12:26:34;;;;;;;4.90;1.70;;;42.70;32.20;;;;;;4949427;28;20231;-75
2022/07/28 12:29:30;;;;;;;5.22;1.40;;;42.90;34.50;;;;;;4965361;28;20223;-75
2022/07/28 12:32:30;;;;;;;3.80;1.13;;;40.10;35.00;;;;;;4962802;28;20219;-74
2022/07/28 12:35:19;;;;;;;3.80;1.17;;;36.10;38.00;;;;;;4961963;28;20240;-75
2022/07/28 12:38:10;;;;;;;2.70;1.10;;;33.90;41.70;;;;;;4956526;28;20604;-75
2022/07/28 12:40:58;;;;;;;1.30;0.98;;;32.80;43.20;;;;;;4949597;28;20231;-76
2022/07/28 12:43:51;;;;;;;1.75;0.93;;;32.50;44.90;;;;;;4965152;28;20218;-73
2022/07/28 12:46:47;;;;;;;1.20;0.90;;;30.90;46.30;;;;;;4963647;28;20274;-77
2022/07/28 12:49:36;;;;;;;2.85;1.20;;;30.10;46.80;;;;;;4956369;28;20219;-77
2022/07/28 12:52:25;;;;;;;4.25;1.40;;;29.70;48.30;;;;;;4965861;28;20222;-75
2022/07/28 12:55:24;;;;;;;4.03;1.40;;;29.40;49.30;;;;;;4964630;28;20889;-78
2022/07/28 12:58:24;;;;;;;2.28;1.33;;;29.80;50.30;;;;;;4962556;28;20234;-78
2022/07/28 13:01:13;;;;;;;2.47;1.08;;;29.80;50.50;;;;;;4962844;28;20211;-78
2022/07/28 13:04:02;;;;;;;2.30;1.10;;;29.10;50.50;;;;;;4961044;28;20222;-77
2022/07/28 13:07:09;;;;;;;5.13;1.10;;;29.10;51.60;;;;;;5037649;27;1255760;-77
2022/07/28 13:10:03;;;;;;;2.33;1.13;;;28.80;52.70;;;;;;5053034;28;20273;-76
2022/07/28 13:13:00;;;;;;;2.63;1.15;;;28.90;52.40;;;;;;5059225;28;20227;-75
2022/07/28 13:16:10;;;;;;;1.98;1.00;;;29.00;52.30;;;;;;5063924;28;20226;-75
2022/07/28 13:19:03;;;;;;;4.03;1.20;;;28.80;52.70;;;;;;5054304;28;20225;-78
2022/07/28 13:21:56;;;;;;;3.80;1.30;;;28.70;52.60;;;;;;5058373;28;20222;-78
2022/07/28 13:24:53;;;;;;;3.10;1.38;;;28.30;53.20;;;;;;5056230;28;20224;-77
2022/07/28 13:27:42;;;;;;;2.90;1.17;;;28.20;53.60;;;;;;5055731;28;20215;-79
2022/07/28 13:30:30;;;;;;;3.22;1.33;;;28.00;54.20;;;;;;5060496;28;20350;-78
2022/07/28 13:33:19;;;;;;;4.25;1.52;;;28.20;55.10;;;;;;5057988;28;20219;-76
2022/07/28 13:36:09;;;;;;;4.80;1.13;;;28.40;55.30;;;;;;5055006;28;20782;-78
2022/07/28 13:38:58;;;;;;;3.33;1.58;;;28.10;53.60;;;;;;5075446;28;20257;-78
2022/07/28 13:41:48;;;;;;;3.35;1.20;;;28.00;54.20;;;;;;5069236;28;20714;-78
2022/07/28 13:44:46;;;;;;;3.85;1.55;;;27.70;54.70;;;;;;5071712;28;20884;-78
2022/07/28 13:47:34;;;;;;;4.40;1.10;;;27.90;54.90;;;;;;5065179;28;20907;-79
2022/07/28 13:50:26;;;;;;;3.40;1.15;;;27.60;55.80;;;;;;5053467;28;20796;-77
2022/07/28 13:53:15;;;;;;;3.60;1.17;;;28.10;55.60;;;;;;5052683;28;20227;-78
2022/07/28 13:56:05;;;;;;;5.07;1.20;;;27.80;54.40;;;;;;5055761;28;20231;-78
2022/07/28 13:58:55;;;;;;;6.70;3.03;;;27.80;55.00;;;;;;5054974;28;20646;-76
2022/07/28 14:01:44;;;;;;;2.17;1.13;;;27.80;55.60;;;;;;5050498;28;20668;-76
2022/07/28 14:04:37;;;;;;;3.45;1.17;;;27.60;55.00;;;;;;5054585;28;20220;-74
2022/07/28 14:07:27;;;;;;;4.57;1.35;;;27.60;54.90;;;;;;5050535;28;20217;-76
2022/07/28 14:10:16;;;;;;;3.08;1.08;;;27.50;55.20;;;;;;5049870;28;20216;-76
2022/07/28 14:13:05;;;;;;;5.43;1.33;;;27.20;54.60;;;;;;5058234;28;20231;-77
2022/07/28 14:15:55;;;;;;;3.88;1.25;;;26.90;55.20;;;;;;5042919;28;20289;-76
2022/07/28 14:18:54;;;;;;;5.32;1.40;;;27.10;56.00;;;;;;5060190;28;20223;-77
2022/07/28 14:21:44;;;;;;;6.72;1.70;;;27.30;56.00;;;;;;5060106;28;20228;-76
2022/07/28 14:24:33;;;;;;;4.00;1.27;;;27.10;55.40;;;;;;5055320;28;20719;-75
2022/07/28 14:27:22;;;;;;;2.63;1.27;;;27.00;56.20;;;;;;5055703;28;20231;-75
2022/07/28 14:30:16;;;;;;;3.60;1.27;;;27.10;56.30;;;;;;5042529;28;20306;-74
2022/07/28 14:33:06;;;;;;;3.10;1.20;;;26.90;55.00;;;;;;5042586;28;20272;-72
2022/07/28 14:35:55;;;;;;;2.05;1.35;;;26.80;56.30;;;;;;5043000;28;20676;-73
2022/07/28 14:38:45;;;;;;;5.82;1.30;;;26.80;55.90;;;;;;5039961;28;20273;-75
2022/07/28 14:41:43;;;;;;;4.07;1.60;;;26.70;56.20;;;;;;5053823;28;20239;-73
2022/07/28 14:44:31;;;;;;;2.45;1.20;;;26.80;56.80;;;;;;5053822;28;20281;-72
2022/07/28 14:47:21;;;;;;;2.10;1.15;;;26.80;57.50;;;;;;5051413;28;20250;-73
2022/07/28 14:50:12;;;;;;;3.15;1.20;;;26.60;56.80;;;;;;5037435;28;20785;-75
2022/07/28 14:53:01;;;;;;;4.95;2.70;;;26.40;58.30;;;;;;5041013;28;20228;-74